createdAt,value
2022-08-28T00:02:46.591Z,18.30
2022-08-28T00:05:34.779Z,18.30
2022-08-28T00:08:22.009Z,18.30
2022-08-28T00:11:09.377Z,18.30
2022-08-28T00:13:56.773Z,18.30
2022-08-28T00:16:45.692Z,18.20
2022-08-28T00:19:38.462Z,18.20
2022-08-28T00:22:25.671Z,18.20
2022-08-28T00:25:14.403Z,18.30
2022-08-28T00:28:10.475Z,18.30
2022-08-28T00:31:00.307Z,18.30
2022-08-28T00:33:48.817Z,18.30
2022-08-28T00:36:35.914Z,18.30
2022-08-28T00:39:23.035Z,18.30
2022-08-28T00:42:10.786Z,18.30
2022-08-28T00:44:58.128Z,18.20
2022-08-28T00:47:45.713Z,18.20
2022-08-28T00:51:00.297Z,18.20
2022-08-28T00:53:46.926Z,18.20
2022-08-28T00:56:35.018Z,18.10
2022-08-28T00:59:24.357Z,18.10
2022-08-28T01:02:11.987Z,18.10
2022-08-28T01:04:59.504Z,18.10
2022-08-28T01:07:48.750Z,18.10
2022-08-28T01:10:36.129Z,18.00
2022-08-28T01:13:26.779Z,18.10
2022-08-28T01:16:15.651Z,18.10
2022-08-28T01:19:05.173Z,18.00
2022-08-28T01:21:56.550Z,18.00
2022-08-28T01:24:46.168Z,18.00
2022-08-28T01:27:33.195Z,17.90
2022-08-28T01:30:23.053Z,18.00
2022-08-28T01:33:10.395Z,17.90
2022-08-28T01:35:59.285Z,17.90
2022-08-28T01:38:50.154Z,17.90
2022-08-28T01:41:41.850Z,18.00
2022-08-28T01:44:29.454Z,18.00
2022-08-28T01:47:17.754Z,18.00
2022-08-28T01:50:05.837Z,18.00
2022-08-28T01:52:53.210Z,18.00
2022-08-28T01:55:40.499Z,18.00
2022-08-28T01:58:30.229Z,18.00
2022-08-28T02:01:20.577Z,18.10
2022-08-28T02:04:07.953Z,18.10
2022-08-28T02:06:55.973Z,18.10
2022-08-28T02:09:43.281Z,18.10
2022-08-28T02:12:30.967Z,18.10
2022-08-28T02:15:20.703Z,18.10
2022-08-28T02:18:11.963Z,18.10
2022-08-28T02:20:59.361Z,18.10
2022-08-28T02:23:46.671Z,18.10
2022-08-28T02:26:34.606Z,18.20
2022-08-28T02:29:22.090Z,18.20
2022-08-28T02:32:11.578Z,18.20
2022-08-28T02:34:59.016Z,18.20
2022-08-28T02:37:47.777Z,18.10
2022-08-28T02:40:37.140Z,18.20
2022-08-28T02:43:24.599Z,18.10
2022-08-28T02:46:11.779Z,18.00
2022-08-28T02:49:00.547Z,18.00
2022-08-28T02:51:48.037Z,17.90
2022-08-28T02:54:37.146Z,17.90
2022-08-28T02:57:24.494Z,17.80
2022-08-28T03:00:14.596Z,17.90
2022-08-28T03:03:02.001Z,17.90
2022-08-28T03:05:50.725Z,17.80
2022-08-28T03:08:38.181Z,17.70
2022-08-28T03:11:25.924Z,17.70
2022-08-28T03:14:13.303Z,17.70
2022-08-28T03:17:01.338Z,17.60
2022-08-28T03:19:50.013Z,17.60
2022-08-28T03:22:56.483Z,17.60
2022-08-28T03:25:44.773Z,17.50
2022-08-28T03:28:35.640Z,17.50
2022-08-28T03:31:25.939Z,17.50
2022-08-28T03:34:13.330Z,17.50
2022-08-28T03:37:01.245Z,17.40
2022-08-28T03:39:49.891Z,17.40
2022-08-28T03:42:37.525Z,17.40
2022-08-28T03:45:25.651Z,17.40
2022-08-28T03:48:14.021Z,17.30
2022-08-28T03:51:02.291Z,17.30
2022-08-28T03:53:50.131Z,17.30
2022-08-28T03:56:42.238Z,17.30
2022-08-28T03:59:29.831Z,17.30
2022-08-28T04:02:21.077Z,17.20
2022-08-28T04:05:09.526Z,17.20
2022-08-28T04:07:56.802Z,17.20
2022-08-28T04:10:44.591Z,17.20
2022-08-28T04:13:33.730Z,17.30
2022-08-28T04:16:20.821Z,17.30
2022-08-28T04:19:07.936Z,17.30
2022-08-28T04:21:55.293Z,17.30
2022-08-28T04:24:42.607Z,17.30
2022-08-28T04:27:30.131Z,17.20
2022-08-28T04:30:19.226Z,17.20
2022-08-28T04:33:07.112Z,17.20
2022-08-28T04:35:55.518Z,17.20
2022-08-28T04:38:44.209Z,17.10
2022-08-28T04:41:31.411Z,17.20
2022-08-28T04:44:19.083Z,17.20
2022-08-28T04:47:07.835Z,17.10
2022-08-28T04:49:56.490Z,17.10
2022-08-28T04:52:44.138Z,17.10
2022-08-28T04:55:48.548Z,16.90
2022-08-28T04:58:39.907Z,16.90
2022-08-28T05:01:27.330Z,16.90
2022-08-28T05:04:16.118Z,17.00
2022-08-28T05:07:03.607Z,17.00
2022-08-28T05:09:53.997Z,17.00
2022-08-28T05:12:41.345Z,17.10
2022-08-28T05:15:28.781Z,17.10
2022-08-28T05:18:18.416Z,17.00
2022-08-28T05:21:14.443Z,17.00
2022-08-28T05:24:01.908Z,16.90
2022-08-28T05:26:49.083Z,17.00
2022-08-28T05:29:36.513Z,17.00
2022-08-28T05:32:23.726Z,17.00
2022-08-28T05:35:11.054Z,17.10
2022-08-28T05:37:59.410Z,17.10
2022-08-28T05:40:50.142Z,16.90
2022-08-28T05:43:37.775Z,17.10
2022-08-28T05:46:25.463Z,17.00
2022-08-28T05:49:13.494Z,17.00
2022-08-28T05:52:00.662Z,16.90
2022-08-28T05:54:49.413Z,16.90
2022-08-28T05:57:36.851Z,16.80
2022-08-28T06:00:24.238Z,16.80
2022-08-28T06:03:11.537Z,16.90
2022-08-28T06:05:59.892Z,16.80
2022-08-28T06:08:56.356Z,16.80
2022-08-28T06:11:48.827Z,16.70
2022-08-28T06:14:37.153Z,16.70
2022-08-28T06:17:24.929Z,16.80
2022-08-28T06:20:13.622Z,16.70
2022-08-28T06:23:00.911Z,16.70
2022-08-28T06:25:50.414Z,16.70
2022-08-28T06:28:39.089Z,16.80
2022-08-28T06:31:29.757Z,16.90
2022-08-28T06:34:20.506Z,16.90
2022-08-28T06:37:08.231Z,17.20
2022-08-28T06:39:55.831Z,17.10
2022-08-28T06:42:42.882Z,17.00
2022-08-28T06:45:31.759Z,17.40
2022-08-28T06:48:20.969Z,17.40
2022-08-28T06:51:09.375Z,17.60
2022-08-28T06:53:57.934Z,17.60
2022-08-28T06:56:46.235Z,17.80
2022-08-28T06:59:33.609Z,17.80
2022-08-28T07:02:22.517Z,17.60
2022-08-28T07:05:15.580Z,17.70
2022-08-28T07:08:02.850Z,17.40
2022-08-28T07:10:50.241Z,17.60
2022-08-28T07:13:37.514Z,17.70
2022-08-28T07:16:26.755Z,17.80
2022-08-28T07:19:15.565Z,18.20
2022-08-28T07:22:03.232Z,17.90
2022-08-28T07:24:50.231Z,18.00
2022-08-28T07:27:37.665Z,18.20
2022-08-28T07:30:24.815Z,18.30
2022-08-28T07:33:12.130Z,18.60
2022-08-28T07:36:01.560Z,18.80
2022-08-28T07:38:48.860Z,18.80
2022-08-28T07:41:42.400Z,19.00
2022-08-28T07:44:46.776Z,19.30
2022-08-28T07:47:38.590Z,18.90
2022-08-28T07:50:25.849Z,18.80
2022-08-28T07:53:15.452Z,18.80
2022-08-28T07:56:03.067Z,19.10
2022-08-28T07:58:50.221Z,19.00
2022-08-28T08:01:40.070Z,19.70
2022-08-28T08:04:27.111Z,19.60
2022-08-28T08:07:14.497Z,19.40
2022-08-28T08:10:03.241Z,19.10
2022-08-28T08:12:50.832Z,19.10
2022-08-28T08:15:39.347Z,19.00
2022-08-28T08:18:26.613Z,19.20
2022-08-28T08:21:16.281Z,19.30
2022-08-28T08:24:04.042Z,19.70
2022-08-28T08:26:59.542Z,19.40
2022-08-28T08:29:48.782Z,19.40
2022-08-28T08:32:38.967Z,19.20
2022-08-28T08:35:26.176Z,18.70
2022-08-28T08:38:13.304Z,19.10
2022-08-28T08:41:02.207Z,19.40
2022-08-28T08:43:57.421Z,19.40
2022-08-28T08:46:50.742Z,19.10
2022-08-28T08:49:42.889Z,19.10
2022-08-28T08:52:38.617Z,18.90
2022-08-28T08:55:28.781Z,18.90
2022-08-28T08:58:25.339Z,18.90
2022-08-28T09:01:21.284Z,19.20
2022-08-28T09:04:24.661Z,19.20
2022-08-28T09:07:17.559Z,19.40
2022-08-28T09:10:06.548Z,19.20
2022-08-28T09:13:01.317Z,19.70
2022-08-28T09:15:50.861Z,19.60
2022-08-28T09:18:39.685Z,20.00
2022-08-28T09:21:30.101Z,20.40
2022-08-28T09:24:23.722Z,19.80
2022-08-28T09:27:24.635Z,19.90
2022-08-28T09:30:12.875Z,19.70
2022-08-28T09:33:01.856Z,19.40
2022-08-28T09:35:50.258Z,19.70
2022-08-28T09:38:39.015Z,19.60
2022-08-28T09:41:43.510Z,19.60
2022-08-28T09:44:31.479Z,20.10
2022-08-28T09:47:45.949Z,19.90
2022-08-28T09:50:36.415Z,20.30
2022-08-28T09:53:25.720Z,20.30
2022-08-28T09:56:17.837Z,19.90
2022-08-28T09:59:08.868Z,20.20
2022-08-28T10:02:13.103Z,20.00
2022-08-28T10:05:05.383Z,19.80
2022-08-28T10:07:57.785Z,19.50
2022-08-28T10:10:51.713Z,19.90
2022-08-28T10:13:47.467Z,19.70
2022-08-28T10:16:43.947Z,20.00
2022-08-28T10:19:42.674Z,19.70
2022-08-28T10:22:40.227Z,19.50
2022-08-28T10:25:35.388Z,19.70
2022-08-28T10:28:39.622Z,19.80
2022-08-28T10:31:37.175Z,19.80
2022-08-28T10:34:37.764Z,19.80
2022-08-28T10:37:35.039Z,19.90
2022-08-28T10:40:27.177Z,19.90
2022-08-28T10:43:19.285Z,19.50
2022-08-28T10:46:13.868Z,19.20
2022-08-28T10:49:04.823Z,19.40
2022-08-28T10:51:57.102Z,19.40
2022-08-28T10:54:50.705Z,19.50
2022-08-28T10:57:42.737Z,19.50
2022-08-28T11:00:30.678Z,19.20
2022-08-28T11:03:33.871Z,19.30
2022-08-28T11:06:29.155Z,19.10
2022-08-28T11:09:27.769Z,18.70
2022-08-28T11:12:38.254Z,18.50
2022-08-28T11:15:46.530Z,18.60
2022-08-28T11:19:10.318Z,18.50
2022-08-28T11:22:04.477Z,18.30
2022-08-28T11:25:04.381Z,18.30
2022-08-28T11:28:40.571Z,18.30
2022-08-28T11:31:32.353Z,18.20
2022-08-28T11:34:53.221Z,18.10
2022-08-28T11:37:44.571Z,18.10
2022-08-28T11:40:56.787Z,18.30
2022-08-28T11:43:45.765Z,18.40
2022-08-28T11:46:34.966Z,18.20
2022-08-28T11:49:42.379Z,18.10
2022-08-28T11:52:47.079Z,18.20
2022-08-28T11:55:58.219Z,18.10
2022-08-28T11:58:52.535Z,18.30
2022-08-28T12:01:40.256Z,18.10
2022-08-28T12:04:42.760Z,18.20
2022-08-28T12:07:36.626Z,18.30
2022-08-28T12:10:57.686Z,18.40
2022-08-28T12:13:51.235Z,18.30
2022-08-28T12:17:12.046Z,18.30
2022-08-28T12:20:09.099Z,18.30
2022-08-28T12:22:59.317Z,18.40
2022-08-28T12:25:46.595Z,18.20
2022-08-28T12:28:44.862Z,18.30
2022-08-28T12:32:14.945Z,18.20
2022-08-28T12:35:16.100Z,18.20
2022-08-28T12:38:05.370Z,18.20
2022-08-28T12:40:53.360Z,18.20
2022-08-28T12:43:46.638Z,18.40
2022-08-28T12:46:43.064Z,18.60
2022-08-28T12:49:33.713Z,18.40
2022-08-28T12:52:24.295Z,18.40
2022-08-28T12:55:11.758Z,18.70
2022-08-28T12:57:59.062Z,18.70
2022-08-28T13:00:53.931Z,18.60
2022-08-28T13:03:46.324Z,18.70
2022-08-28T13:06:37.243Z,18.70
2022-08-28T13:09:28.225Z,18.60
2022-08-28T13:12:21.722Z,18.60
2022-08-28T13:15:44.792Z,18.70
2022-08-28T13:18:44.013Z,19.00
2022-08-28T13:21:35.203Z,18.90
2022-08-28T13:24:45.646Z,18.80
2022-08-28T13:27:33.266Z,18.70
2022-08-28T13:30:24.888Z,18.80
2022-08-28T13:33:23.575Z,18.80
2022-08-28T13:36:24.760Z,18.60
2022-08-28T13:39:13.286Z,18.80
2022-08-28T13:42:07.042Z,19.00
2022-08-28T13:44:56.601Z,19.10
2022-08-28T13:47:44.107Z,19.10
2022-08-28T13:50:33.406Z,19.30
2022-08-28T13:53:21.658Z,19.50
2022-08-28T13:56:09.247Z,19.60
2022-08-28T13:58:57.900Z,19.50
2022-08-28T14:02:03.129Z,19.40
2022-08-28T14:04:50.182Z,19.60
2022-08-28T14:07:39.460Z,19.70
2022-08-28T14:10:27.464Z,19.60
2022-08-28T14:13:15.280Z,19.70
2022-08-28T14:16:06.276Z,19.90
2022-08-28T14:18:53.621Z,20.10
2022-08-28T14:21:42.297Z,20.10
2022-08-28T14:24:31.000Z,20.20
2022-08-28T14:27:18.778Z,20.20
2022-08-28T14:30:08.218Z,20.20
2022-08-28T14:32:55.585Z,20.20
2022-08-28T14:35:43.295Z,20.20
2022-08-28T14:38:30.490Z,20.40
2022-08-28T14:41:19.083Z,20.30
2022-08-28T14:44:06.549Z,20.40
2022-08-28T14:46:57.040Z,20.40
2022-08-28T14:49:44.560Z,20.50
2022-08-28T14:52:31.682Z,20.70
2022-08-28T14:55:18.990Z,20.60
2022-08-28T14:58:07.709Z,20.60
2022-08-28T15:00:55.283Z,20.70
2022-08-28T15:03:42.596Z,20.80
2022-08-28T15:06:31.285Z,20.80
2022-08-28T15:09:19.043Z,20.90
2022-08-28T15:12:07.007Z,20.70
2022-08-28T15:14:57.104Z,20.70
2022-08-28T15:17:44.364Z,20.60
2022-08-28T15:20:31.649Z,20.70
2022-08-28T15:23:18.914Z,20.80
2022-08-28T15:26:06.485Z,20.90
2022-08-28T15:28:55.813Z,21.10
2022-08-28T15:31:47.262Z,21.10
2022-08-28T15:34:34.585Z,21.10
2022-08-28T15:37:21.888Z,21.20
2022-08-28T15:40:27.845Z,21.20
2022-08-28T15:43:14.985Z,21.40
2022-08-28T15:46:02.413Z,21.40
2022-08-28T15:48:51.245Z,21.50
2022-08-28T15:51:41.559Z,21.50
2022-08-28T15:54:28.921Z,21.50
2022-08-28T15:57:16.300Z,21.60
2022-08-28T16:00:08.549Z,21.50
2022-08-28T16:03:00.787Z,21.50
2022-08-28T16:05:49.531Z,21.50
2022-08-28T16:08:37.245Z,21.60
2022-08-28T16:11:24.519Z,21.50
2022-08-28T16:14:12.604Z,21.40
2022-08-28T16:16:59.883Z,21.40
2022-08-28T16:19:53.574Z,21.40
2022-08-28T16:22:42.371Z,21.40
2022-08-28T16:25:29.615Z,21.50
2022-08-28T16:28:17.042Z,21.50
2022-08-28T16:31:07.371Z,21.50
2022-08-28T16:33:54.729Z,21.50
2022-08-28T16:36:42.052Z,21.50
2022-08-28T16:39:30.840Z,21.50
2022-08-28T16:42:18.182Z,21.50
2022-08-28T16:45:07.053Z,21.50
2022-08-28T16:47:54.633Z,21.50
2022-08-28T16:50:42.967Z,21.50
2022-08-28T16:53:31.127Z,21.40
2022-08-28T16:56:19.833Z,21.40
2022-08-28T16:59:10.372Z,21.30
2022-08-28T17:01:57.699Z,21.30
2022-08-28T17:04:45.153Z,21.30
2022-08-28T17:07:32.226Z,21.20
2022-08-28T17:10:22.791Z,21.20
2022-08-28T17:13:11.373Z,21.10
2022-08-28T17:15:58.454Z,21.10
2022-08-28T17:18:47.433Z,21.10
2022-08-28T17:21:53.973Z,21.00
2022-08-28T17:24:41.122Z,21.00
2022-08-28T17:27:29.035Z,21.00
2022-08-28T17:30:18.942Z,20.90
2022-08-28T17:33:07.089Z,20.80
2022-08-28T17:35:58.190Z,20.80
2022-08-28T17:38:47.403Z,20.70
2022-08-28T17:41:35.401Z,20.60
2022-08-28T17:44:22.351Z,20.50
2022-08-28T17:47:11.866Z,20.40
2022-08-28T17:49:59.637Z,20.40
2022-08-28T17:52:47.127Z,20.30
2022-08-28T17:55:34.623Z,20.20
2022-08-28T17:58:21.896Z,20.20
2022-08-28T18:01:09.331Z,20.20
2022-08-28T18:03:58.139Z,20.10
2022-08-28T18:06:46.326Z,19.90
2022-08-28T18:09:33.607Z,19.90
2022-08-28T18:12:20.881Z,19.80
2022-08-28T18:15:10.333Z,19.80
2022-08-28T18:17:57.822Z,19.80
2022-08-28T18:20:46.231Z,19.70
2022-08-28T18:23:33.651Z,19.60
2022-08-28T18:26:21.318Z,19.60
2022-08-28T18:29:08.781Z,19.40
2022-08-28T18:31:56.491Z,19.30
2022-08-28T18:34:43.724Z,19.20
2022-08-28T18:37:32.263Z,19.20
2022-08-28T18:40:19.818Z,19.10
2022-08-28T18:43:06.976Z,19.00
2022-08-28T18:45:54.700Z,18.90
2022-08-28T18:48:42.689Z,18.70
2022-08-28T18:51:32.240Z,18.50
2022-08-28T18:54:22.003Z,18.30
2022-08-28T18:57:10.509Z,18.30
2022-08-28T18:59:59.214Z,18.30
2022-08-28T19:02:46.666Z,18.60
2022-08-28T19:05:35.882Z,18.70
2022-08-28T19:08:23.641Z,18.80
2022-08-28T19:11:14.211Z,18.80
2022-08-28T19:14:03.912Z,18.80
2022-08-28T19:16:51.623Z,18.70
2022-08-28T19:19:38.870Z,18.70
2022-08-28T19:22:26.370Z,18.60
2022-08-28T19:25:27.530Z,18.50
2022-08-28T19:28:17.702Z,18.70
2022-08-28T19:31:05.397Z,18.60
2022-08-28T19:33:52.816Z,18.60
2022-08-28T19:36:41.705Z,18.60
2022-08-28T19:39:29.272Z,18.50
2022-08-28T19:42:17.078Z,18.60
2022-08-28T19:45:08.047Z,18.40
2022-08-28T19:47:55.018Z,18.50
2022-08-28T19:50:42.673Z,18.40
2022-08-28T19:53:29.722Z,18.40
2022-08-28T19:56:17.132Z,18.20
2022-08-28T19:59:07.421Z,18.20
2022-08-28T20:01:56.035Z,18.20
2022-08-28T20:04:43.900Z,18.10
2022-08-28T20:07:31.036Z,18.10
2022-08-28T20:10:19.653Z,18.10
2022-08-28T20:13:06.998Z,18.10
2022-08-28T20:15:54.542Z,18.10
2022-08-28T20:18:43.337Z,17.90
2022-08-28T20:21:37.246Z,17.80
2022-08-28T20:24:25.443Z,17.90
2022-08-28T20:27:13.035Z,17.80
2022-08-28T20:30:10.390Z,17.80
2022-08-28T20:32:58.922Z,17.80
2022-08-28T20:35:47.714Z,17.80
2022-08-28T20:38:35.382Z,17.80
2022-08-28T20:41:22.699Z,17.70
2022-08-28T20:44:12.835Z,17.70
2022-08-28T20:47:00.069Z,17.70
2022-08-28T20:49:47.586Z,17.60
2022-08-28T20:52:36.113Z,17.60
2022-08-28T20:55:23.685Z,17.50
2022-08-28T20:58:12.648Z,17.50
2022-08-28T21:01:00.294Z,17.50
2022-08-28T21:03:47.408Z,17.50
2022-08-28T21:06:34.727Z,17.50
2022-08-28T21:09:41.036Z,17.50
2022-08-28T21:12:30.745Z,17.40
2022-08-28T21:15:18.110Z,17.40
2022-08-28T21:18:05.445Z,17.40
2022-08-28T21:20:52.787Z,17.30
2022-08-28T21:23:42.216Z,17.40
2022-08-28T21:26:30.792Z,17.40
2022-08-28T21:29:20.802Z,17.20
2022-08-28T21:32:09.259Z,17.00
2022-08-28T21:34:56.854Z,17.00
2022-08-28T21:37:44.419Z,17.00
2022-08-28T21:40:32.015Z,17.10
2022-08-28T21:43:20.875Z,17.10
2022-08-28T21:46:09.193Z,17.10
2022-08-28T21:48:57.137Z,16.90
2022-08-28T21:51:44.415Z,16.90
2022-08-28T21:54:31.696Z,16.90
2022-08-28T21:57:19.040Z,16.90
2022-08-28T22:00:11.858Z,16.80
2022-08-28T22:02:59.262Z,16.70
2022-08-28T22:05:47.921Z,16.70
2022-08-28T22:08:35.010Z,16.70
2022-08-28T22:11:25.228Z,16.70
2022-08-28T22:14:12.747Z,16.60
2022-08-28T22:17:01.351Z,16.60
2022-08-28T22:19:48.703Z,16.60
2022-08-28T22:22:53.369Z,16.60
2022-08-28T22:25:41.982Z,16.60
2022-08-28T22:28:29.269Z,16.50
2022-08-28T22:31:16.832Z,16.40
2022-08-28T22:34:07.000Z,16.40
2022-08-28T22:36:54.401Z,16.40
2022-08-28T22:39:42.383Z,16.30
2022-08-28T22:42:29.913Z,16.20
2022-08-28T22:45:17.367Z,16.10
2022-08-28T22:48:05.205Z,16.00
2022-08-28T22:51:03.021Z,16.00
2022-08-28T22:53:50.421Z,16.00
2022-08-28T22:56:37.824Z,16.00
2022-08-28T22:59:27.383Z,16.00
2022-08-28T23:02:14.496Z,16.00
2022-08-28T23:05:02.072Z,15.90
2022-08-28T23:07:50.727Z,15.90
2022-08-28T23:10:57.989Z,15.90
2022-08-28T23:13:44.736Z,15.80
2022-08-28T23:16:32.401Z,15.90
2022-08-28T23:19:22.986Z,15.90
2022-08-28T23:22:10.358Z,15.80
2022-08-28T23:24:58.646Z,15.70
2022-08-28T23:27:46.346Z,15.70
2022-08-28T23:30:33.632Z,15.70
2022-08-28T23:33:23.521Z,15.70
2022-08-28T23:36:11.727Z,15.70
2022-08-28T23:38:59.352Z,15.60
2022-08-28T23:41:48.702Z,15.60
2022-08-28T23:44:36.454Z,15.60
2022-08-28T23:47:24.363Z,15.50
2022-08-28T23:50:15.426Z,15.60
2022-08-28T23:53:03.888Z,15.60
2022-08-28T23:55:51.429Z,15.60
2022-08-28T23:58:40.209Z,15.50
